Time;durP1;ratioP1;P1;durP2;ratioP2;P2;SDS_P1;SDS_P2;PMS_P1;PMS_P2;Temp;Humidity;BMP_temperature;BMP_pressure;BME280_temperature;BME280_humidity;BME280_pressure;Samples;Min_cycle;Max_cycle;Signal;HPM_P1;HPM_P2
2022/10/31 00:01:12;;;;;;;9.52;2.90;;;12.80;99.90;;;;;;5065859;28;20089;-74
2022/10/31 00:03:38;;;;;;;13.27;3.10;;;12.80;99.90;;;;;;5075127;28;20050;-74
2022/10/31 00:06:10;;;;;;;8.18;2.05;;;12.80;99.90;;;;;;5076228;28;20616;-74
2022/10/31 00:08:36;;;;;;;6.70;2.63;;;12.80;99.90;;;;;;5073370;28;20031;-73
2022/10/31 00:11:08;;;;;;;7.90;2.88;;;12.80;99.90;;;;;;5071466;28;20028;-74
2022/10/31 00:13:36;;;;;;;7.43;3.10;;;12.80;99.90;;;;;;5077884;28;20040;-75
2022/10/31 00:16:02;;;;;;;11.45;2.92;;;12.80;99.90;;;;;;5069870;28;20028;-75
2022/10/31 00:18:34;;;;;;;9.13;2.50;;;12.80;99.90;;;;;;5074673;28;20111;-74
2022/10/31 00:21:03;;;;;;;10.93;2.75;;;12.70;99.90;;;;;;5076257;28;20032;-74
2022/10/31 00:23:32;;;;;;;5.88;2.70;;;12.70;99.90;;;;;;5064271;28;20082;-74
2022/10/31 00:26:02;;;;;;;9.00;3.17;;;12.70;99.90;;;;;;5077536;28;20508;-75
2022/10/31 00:28:30;;;;;;;12.90;3.65;;;12.70;99.90;;;;;;5070135;28;20074;-74
2022/10/31 00:31:02;;;;;;;11.75;4.28;;;12.70;99.90;;;;;;5072482;28;20079;-74
2022/10/31 00:33:36;;;;;;;12.30;4.85;;;12.60;99.90;;;;;;5087066;28;20017;-74
2022/10/31 00:36:02;;;;;;;12.93;5.53;;;12.60;99.90;;;;;;5073085;28;20017;-75
2022/10/31 00:38:28;;;;;;;12.02;5.38;;;12.50;99.90;;;;;;5074519;28;20024;-74
2022/10/31 00:40:54;;;;;;;11.85;5.05;;;12.60;99.90;;;;;;5068075;28;20397;-74
2022/10/31 00:43:19;;;;;;;17.60;5.75;;;12.50;99.90;;;;;;5073789;28;20482;-74
2022/10/31 00:45:51;;;;;;;11.45;5.55;;;12.40;99.90;;;;;;5074445;28;20037;-74
2022/10/31 00:48:16;;;;;;;12.70;6.35;;;12.40;99.90;;;;;;5071706;28;20099;-75
2022/10/31 00:50:45;;;;;;;14.95;5.95;;;12.30;99.90;;;;;;5071200;28;20032;-74
2022/10/31 00:53:10;;;;;;;14.05;5.80;;;12.30;99.90;;;;;;5071607;28;20056;-74
2022/10/31 00:55:48;;;;;;;13.07;5.85;;;12.20;99.90;;;;;;5069608;28;20094;-74
2022/10/31 00:58:14;;;;;;;11.98;6.20;;;12.20;99.90;;;;;;5073414;28;20073;-74
2022/10/31 01:00:42;;;;;;;14.13;5.78;;;12.10;99.90;;;;;;5074134;28;20486;-73
2022/10/31 01:03:08;;;;;;;14.27;5.47;;;12.10;99.90;;;;;;5072685;28;20103;-74
2022/10/31 01:05:43;;;;;;;11.18;4.88;;;12.10;99.90;;;;;;5073470;28;20503;-74
2022/10/31 01:08:11;;;;;;;10.80;4.60;;;12.10;99.90;;;;;;5070083;28;20059;-74
2022/10/31 01:10:36;;;;;;;8.40;4.10;;;12.10;99.90;;;;;;5072715;28;20036;-74
2022/10/31 01:13:02;;;;;;;5.45;3.35;;;12.10;99.90;;;;;;5071985;28;20029;-74
2022/10/31 01:15:52;;;;;;;13.90;3.65;;;12.00;99.90;;;;;;5071398;28;20481;-74
2022/10/31 01:18:34;;;;;;;11.60;3.90;;;12.00;99.90;;;;;;5071842;28;20027;-73
2022/10/31 01:21:08;;;;;;;11.23;4.00;;;12.00;99.90;;;;;;5072896;28;20021;-74
2022/10/31 01:23:37;;;;;;;18.23;3.97;;;12.00;99.90;;;;;;5072048;28;20496;-74
2022/10/31 01:26:17;;;;;;;6.97;3.10;;;12.00;99.90;;;;;;5073106;28;20556;-74
2022/10/31 01:28:54;;;;;;;12.90;4.53;;;12.00;99.90;;;;;;5074636;28;20380;-73
2022/10/31 01:31:21;;;;;;;12.73;4.50;;;11.90;99.90;;;;;;5073880;28;20124;-73
2022/10/31 01:33:50;;;;;;;10.70;4.30;;;11.90;99.90;;;;;;5074463;28;20076;-74
2022/10/31 01:36:34;;;;;;;13.68;5.40;;;11.90;99.90;;;;;;5064934;28;20358;-74
2022/10/31 01:39:03;;;;;;;11.18;5.35;;;11.80;99.90;;;;;;5073063;28;20031;-73
2022/10/31 01:41:32;;;;;;;13.82;4.20;;;11.80;99.90;;;;;;5072713;28;20397;-74
2022/10/31 01:44:00;;;;;;;7.63;4.28;;;11.80;99.90;;;;;;5073605;28;20025;-74
2022/10/31 01:46:32;;;;;;;11.98;4.97;;;11.80;99.90;;;;;;5074158;28;20024;-74
2022/10/31 01:49:01;;;;;;;9.07;4.15;;;11.70;99.90;;;;;;5072064;28;20186;-74
2022/10/31 01:51:35;;;;;;;8.65;4.43;;;11.70;99.90;;;;;;5073766;28;20040;-74
2022/10/31 01:54:07;;;;;;;8.57;4.22;;;11.60;99.90;;;;;;5073660;28;20039;-75
2022/10/31 01:56:37;;;;;;;7.13;3.92;;;11.60;99.90;;;;;;5073802;28;20099;-74
2022/10/31 01:59:07;;;;;;;10.77;4.80;;;11.50;99.90;;;;;;5053905;28;20030;-74
2022/10/31 02:01:45;;;;;;;10.75;4.50;;;11.50;99.90;;;;;;5069474;28;20032;-74
2022/10/31 02:04:11;;;;;;;9.80;3.97;;;11.40;99.90;;;;;;5073486;28;20132;-75
2022/10/31 02:07:06;;;;;;;8.07;4.40;;;11.40;99.90;;;;;;5073585;28;20094;-75
2022/10/31 02:09:34;;;;;;;8.63;3.90;;;11.40;99.90;;;;;;5068608;28;20041;-74
2022/10/31 02:12:00;;;;;;;9.10;4.53;;;11.30;99.90;;;;;;5071703;28;20135;-74
2022/10/31 02:14:30;;;;;;;10.38;3.90;;;11.30;99.90;;;;;;5073261;28;20515;-74
2022/10/31 02:16:58;;;;;;;9.75;4.10;;;11.30;99.90;;;;;;5072930;28;20016;-74
2022/10/31 02:19:34;;;;;;;10.25;3.85;;;11.30;99.90;;;;;;5073000;28;20099;-74
2022/10/31 02:22:19;;;;;;;8.60;4.22;;;11.30;99.90;;;;;;5073103;28;20385;-74
2022/10/31 02:25:24;;;;;;;12.82;4.40;;;11.30;99.90;;;;;;5072510;28;20105;-74
2022/10/31 02:28:08;;;;;;;9.07;4.60;;;11.20;99.90;;;;;;5054171;28;20037;-74
2022/10/31 02:30:57;;;;;;;9.63;4.57;;;11.20;99.90;;;;;;5073110;28;20515;-75
2022/10/31 02:34:05;;;;;;;10.10;4.68;;;11.20;99.90;;;;;;5073337;28;20036;-74
2022/10/31 02:36:42;;;;;;;12.07;4.40;;;11.20;99.90;;;;;;5053438;28;20025;-74
2022/10/31 02:39:17;;;;;;;7.32;3.55;;;11.20;99.90;;;;;;5073076;28;20377;-74
2022/10/31 02:41:45;;;;;;;8.88;3.83;;;11.20;99.90;;;;;;5073449;28;20056;-74
2022/10/31 02:44:39;;;;;;;10.00;3.42;;;11.20;99.90;;;;;;5071703;28;20025;-74
2022/10/31 02:47:20;;;;;;;10.18;3.90;;;11.20;99.90;;;;;;5066507;28;20025;-75
2022/10/31 02:50:03;;;;;;;14.35;4.18;;;11.10;99.90;;;;;;5071413;28;20112;-75
2022/10/31 02:52:33;;;;;;;11.00;4.07;;;11.20;99.90;;;;;;5072505;28;20024;-75
2022/10/31 02:55:29;;;;;;;11.00;4.13;;;11.10;99.90;;;;;;5072588;28;20108;-74
2022/10/31 02:58:05;;;;;;;9.45;3.42;;;11.20;99.90;;;;;;5072360;28;20632;-75
2022/10/31 03:00:50;;;;;;;6.90;3.15;;;11.20;99.90;;;;;;5068851;28;20025;-73
2022/10/31 03:03:21;;;;;;;;;;;11.20;99.90;;;;;;5066256;28;20388;-75
2022/10/31 03:06:17;;;;;;;9.15;3.42;;;11.10;99.90;;;;;;5072297;28;20449;-76
2022/10/31 03:09:10;;;;;;;9.23;3.35;;;11.10;99.90;;;;;;5072184;28;20056;-76
2022/10/31 03:12:00;;;;;;;7.40;3.50;;;11.10;99.90;;;;;;5059214;28;20020;-76
2022/10/31 03:14:39;;;;;;;7.78;3.22;;;11.10;99.90;;;;;;5084038;22;20580;-75
2022/10/31 03:17:07;;;;;;;8.70;3.50;;;11.10;99.90;;;;;;5034128;28;20389;-75
2022/10/31 03:19:45;;;;;;;8.07;3.20;;;11.00;99.90;;;;;;5029117;28;20492;-75
2022/10/31 03:22:22;;;;;;;8.80;2.83;;;11.00;99.90;;;;;;5013247;28;20025;-76
2022/10/31 03:24:53;;;;;;;6.90;2.85;;;11.00;99.90;;;;;;5035119;28;20116;-76
2022/10/31 03:27:29;;;;;;;8.77;3.17;;;11.00;99.90;;;;;;5034040;28;20060;-75
2022/10/31 03:30:07;;;;;;;8.70;3.30;;;11.00;99.90;;;;;;5042770;28;20025;-76
2022/10/31 03:32:51;;;;;;;8.93;3.60;;;10.90;99.90;;;;;;5036219;28;20432;-76
2022/10/31 03:35:20;;;;;;;7.28;3.47;;;10.90;99.90;;;;;;5030561;28;20052;-76
2022/10/31 03:37:47;;;;;;;13.43;3.70;;;10.90;99.90;;;;;;5030725;28;20385;-76
2022/10/31 03:40:18;;;;;;;10.63;3.58;;;10.90;99.90;;;;;;5032171;28;20037;-76
2022/10/31 03:42:51;;;;;;;15.52;3.72;;;10.90;99.90;;;;;;5028322;28;20482;-76
2022/10/31 03:45:29;;;;;;;11.82;3.30;;;10.80;99.90;;;;;;5020542;28;20048;-76
2022/10/31 03:47:56;;;;;;;13.02;3.70;;;10.80;99.90;;;;;;5024001;28;20456;-76
2022/10/31 03:50:27;;;;;;;9.65;3.35;;;10.80;99.90;;;;;;5030524;28;20017;-75
2022/10/31 03:53:06;;;;;;;9.07;3.28;;;10.80;99.90;;;;;;5034439;28;20057;-75
2022/10/31 03:55:36;;;;;;;6.55;2.38;;;10.80;99.90;;;;;;5045280;28;20486;-76
2022/10/31 03:58:10;;;;;;;6.53;2.90;;;10.80;99.90;;;;;;5015162;28;20034;-76
2022/10/31 04:00:43;;;;;;;7.15;2.95;;;10.70;99.90;;;;;;5014463;28;20028;-76
2022/10/31 04:03:18;;;;;;;8.35;3.58;;;10.70;99.90;;;;;;5022944;28;20033;-76
2022/10/31 04:05:47;;;;;;;9.35;2.90;;;10.70;99.90;;;;;;5024938;28;20105;-76
2022/10/31 04:08:18;;;;;;;12.50;3.25;;;10.70;99.90;;;;;;5018578;28;20026;-76
2022/10/31 04:10:48;;;;;;;8.63;3.25;;;10.70;99.90;;;;;;5035721;28;20021;-76
2022/10/31 04:13:25;;;;;;;10.88;3.72;;;10.60;99.90;;;;;;5026467;28;20105;-76
2022/10/31 04:15:55;;;;;;;8.25;3.72;;;10.60;99.90;;;;;;5014405;28;20061;-76
2022/10/31 04:18:25;;;;;;;7.97;3.40;;;10.50;99.90;;;;;;5035938;28;20124;-76
2022/10/31 04:21:10;;;;;;;11.80;3.80;;;10.50;99.90;;;;;;5038881;28;20073;-76
2022/10/31 04:23:36;;;;;;;9.05;3.33;;;10.40;99.90;;;;;;5016817;28;20017;-76
2022/10/31 04:26:04;;;;;;;11.63;3.08;;;10.40;99.90;;;;;;5035452;28;20067;-76
2022/10/31 04:28:31;;;;;;;10.18;3.95;;;10.40;99.90;;;;;;5013974;28;20029;-76
2022/10/31 04:30:56;;;;;;;5.30;3.00;;;10.40;99.90;;;;;;5031265;28;20033;-76
2022/10/31 04:33:25;;;;;;;7.60;3.28;;;10.30;99.90;;;;;;5007700;28;20506;-76
2022/10/31 04:35:51;;;;;;;7.35;3.05;;;10.30;99.90;;;;;;5032489;28;20030;-76
2022/10/31 04:38:16;;;;;;;12.35;3.75;;;10.30;99.90;;;;;;5033159;28;20032;-76
2022/10/31 04:40:42;;;;;;;6.95;3.53;;;10.30;99.90;;;;;;5032719;28;20104;-75
2022/10/31 04:43:11;;;;;;;6.75;3.50;;;10.20;99.90;;;;;;5019518;28;20053;-76
2022/10/31 04:45:37;;;;;;;7.97;3.30;;;10.20;99.90;;;;;;5040521;28;20040;-77
2022/10/31 04:48:09;;;;;;;12.10;3.67;;;10.20;99.90;;;;;;5032177;28;20040;-77
2022/10/31 04:50:35;;;;;;;9.38;3.78;;;10.20;99.90;;;;;;5033967;28;20397;-76
2022/10/31 04:53:03;;;;;;;7.70;3.53;;;10.10;99.90;;;;;;5012560;28;20030;-76
2022/10/31 04:55:29;;;;;;;7.72;3.55;;;10.10;99.90;;;;;;5012871;28;20107;-76
2022/10/31 04:57:58;;;;;;;7.38;3.53;;;10.20;99.90;;;;;;5016160;28;20025;-77
2022/10/31 05:00:29;;;;;;;6.35;3.10;;;10.20;99.90;;;;;;5031168;28;20048;-76
2022/10/31 05:02:58;;;;;;;10.73;3.58;;;10.20;99.90;;;;;;5036444;28;20037;-76
2022/10/31 05:05:27;;;;;;;8.75;3.78;;;10.10;99.90;;;;;;5035776;28;20021;-76
2022/10/31 05:07:59;;;;;;;13.48;3.50;;;10.10;99.90;;;;;;5038359;28;20025;-77
2022/10/31 05:10:27;;;;;;;8.02;3.08;;;10.10;99.90;;;;;;5029119;28;20021;-76
2022/10/31 05:12:55;;;;;;;9.90;4.10;;;10.10;99.90;;;;;;5016975;28;20460;-76
2022/10/31 05:15:23;;;;;;;7.72;3.22;;;10.10;99.90;;;;;;5035672;28;20096;-76
2022/10/31 05:17:52;;;;;;;11.45;3.53;;;10.10;99.90;;;;;;5032482;28;20052;-77
2022/10/31 05:20:24;;;;;;;6.20;2.90;;;10.10;99.90;;;;;;5014980;28;20033;-77
2022/10/31 05:22:52;;;;;;;9.13;3.45;;;10.00;99.90;;;;;;5008770;28;20030;-77
2022/10/31 05:25:19;;;;;;;6.72;2.95;;;10.00;99.90;;;;;;5033780;28;20036;-76
2022/10/31 05:27:47;;;;;;;9.20;3.38;;;10.00;99.90;;;;;;5020484;28;20099;-76
2022/10/31 05:30:16;;;;;;;13.57;3.72;;;10.00;99.90;;;;;;5035214;28;20033;-76
2022/10/31 05:32:47;;;;;;;7.30;3.90;;;10.00;99.90;;;;;;5036222;28;20017;-76
2022/10/31 05:35:32;;;;;;;11.50;4.30;;;10.00;99.90;;;;;;5041174;28;20056;-74
2022/10/31 05:37:58;;;;;;;11.18;3.42;;;10.00;99.90;;;;;;5039315;28;20036;-77
2022/10/31 05:40:26;;;;;;;9.90;3.90;;;10.00;99.90;;;;;;5036129;28;20505;-74
2022/10/31 05:42:53;;;;;;;9.32;3.47;;;10.00;99.90;;;;;;5039461;28;20018;-74
2022/10/31 05:45:20;;;;;;;5.05;3.28;;;10.00;99.90;;;;;;5032925;28;20097;-76
2022/10/31 05:47:56;;;;;;;6.90;3.90;;;10.00;99.90;;;;;;5033832;28;20057;-74
2022/10/31 05:50:24;;;;;;;11.50;3.58;;;9.90;99.90;;;;;;5026087;28;20013;-76
2022/10/31 05:53:01;;;;;;;12.43;3.92;;;9.90;99.90;;;;;;5020875;28;20029;-75
2022/10/31 05:55:28;;;;;;;10.38;3.53;;;9.90;99.90;;;;;;5048634;28;20328;-75
2022/10/31 05:57:54;;;;;;;14.52;4.03;;;9.90;99.90;;;;;;5034785;28;20029;-75
2022/10/31 06:00:21;;;;;;;12.30;3.65;;;9.90;99.90;;;;;;5037327;28;20025;-73
2022/10/31 06:02:49;;;;;;;8.77;3.58;;;9.90;99.90;;;;;;5029130;28;20029;-73
2022/10/31 06:05:16;;;;;;;12.70;3.85;;;9.90;99.90;;;;;;5030224;28;20351;-73
2022/10/31 06:07:44;;;;;;;10.75;4.30;;;9.90;99.90;;;;;;5035789;28;20442;-73
2022/10/31 06:10:16;;;;;;;14.13;4.20;;;10.00;99.90;;;;;;5034658;28;20029;-73
2022/10/31 06:12:42;;;;;;;12.90;3.55;;;10.00;99.90;;;;;;5015862;28;20034;-73
2022/10/31 06:15:08;;;;;;;10.85;3.38;;;10.00;99.90;;;;;;5035372;28;20044;-73
2022/10/31 06:17:35;;;;;;;7.53;3.58;;;10.00;99.90;;;;;;5034309;28;20480;-73
2022/10/31 06:20:01;;;;;;;11.52;4.22;;;10.00;99.90;;;;;;5019458;28;20077;-74
2022/10/31 06:22:27;;;;;;;12.45;4.45;;;10.00;99.90;;;;;;5027598;28;20055;-74
2022/10/31 06:24:53;;;;;;;10.63;4.30;;;10.00;99.90;;;;;;5044603;28;20024;-74
2022/10/31 06:27:24;;;;;;;10.77;3.58;;;10.00;99.90;;;;;;5039988;28;20494;-74
2022/10/31 06:29:53;;;;;;;11.25;3.60;;;9.90;99.90;;;;;;5035429;28;20393;-73
2022/10/31 06:32:19;;;;;;;8.68;3.72;;;9.90;99.90;;;;;;5033855;28;20106;-74
2022/10/31 06:34:47;;;;;;;12.52;4.45;;;9.90;99.90;;;;;;5033802;28;20382;-74
2022/10/31 06:37:16;;;;;;;15.85;4.50;;;9.90;99.90;;;;;;5034159;28;20017;-74
2022/10/31 06:39:42;;;;;;;8.25;4.30;;;9.90;99.90;;;;;;5016516;28;20094;-74
2022/10/31 06:42:11;;;;;;;7.63;4.65;;;9.90;99.90;;;;;;5022396;28;20499;-73
2022/10/31 06:44:36;;;;;;;9.80;4.35;;;9.80;99.90;;;;;;5018597;28;20022;-74
2022/10/31 06:47:06;;;;;;;11.45;4.57;;;9.90;99.90;;;;;;5029363;28;20021;-73
2022/10/31 06:49:34;;;;;;;11.65;4.93;;;9.80;99.90;;;;;;5034180;28;20040;-73
2022/10/31 06:52:03;;;;;;;9.43;5.07;;;9.80;99.90;;;;;;5018515;28;20481;-73
2022/10/31 06:54:28;;;;;;;10.23;5.18;;;9.80;99.90;;;;;;5036101;28;20132;-73
2022/10/31 06:56:54;;;;;;;10.65;4.55;;;9.80;99.90;;;;;;5054119;28;20021;-73
2022/10/31 06:59:20;;;;;;;12.68;4.68;;;9.90;99.90;;;;;;5020853;28;20551;-73
2022/10/31 07:01:51;;;;;;;9.65;4.28;;;9.90;99.90;;;;;;5038579;28;20078;-74
2022/10/31 07:04:17;;;;;;;11.52;4.45;;;9.90;99.90;;;;;;5047018;28;20021;-74
2022/10/31 07:06:45;;;;;;;11.90;5.03;;;10.00;99.90;;;;;;5051028;28;20720;-74
2022/10/31 07:09:11;;;;;;;21.00;5.55;;;10.00;99.90;;;;;;5025819;28;20022;-72
2022/10/31 07:11:40;;;;;;;14.98;5.05;;;10.00;99.90;;;;;;5038965;28;20033;-74
2022/10/31 07:14:11;;;;;;;11.27;4.75;;;10.00;99.90;;;;;;5039141;28;20028;-73
2022/10/31 07:16:37;;;;;;;14.45;4.43;;;10.10;99.90;;;;;;5033879;28;20013;-74
2022/10/31 07:19:02;;;;;;;13.13;4.53;;;10.10;99.90;;;;;;5033649;28;20044;-74
2022/10/31 07:21:28;;;;;;;12.88;4.90;;;10.10;99.90;;;;;;5014772;28;20033;-74
2022/10/31 07:23:57;;;;;;;17.55;5.57;;;10.20;99.90;;;;;;5015458;28;20486;-72
2022/10/31 07:26:27;;;;;;;18.63;4.85;;;10.20;99.90;;;;;;5030344;28;20037;-75
2022/10/31 07:28:53;;;;;;;20.95;5.40;;;10.30;99.90;;;;;;5012500;28;20034;-76
2022/10/31 07:31:18;;;;;;;16.98;4.65;;;10.40;99.90;;;;;;5032823;28;20504;-74
2022/10/31 07:33:44;;;;;;;15.23;4.30;;;10.40;99.90;;;;;;5015521;28;20075;-75
2022/10/31 07:36:15;;;;;;;23.15;5.90;;;10.50;99.90;;;;;;5015299;28;20032;-74
2022/10/31 07:38:41;;;;;;;15.05;4.82;;;10.50;99.90;;;;;;5010206;28;20030;-74
2022/10/31 07:41:06;;;;;;;14.27;4.63;;;10.60;99.90;;;;;;5028092;28;20080;-74
2022/10/31 07:43:32;;;;;;;8.93;4.88;;;10.60;99.90;;;;;;5005798;28;20486;-73
2022/10/31 07:45:58;;;;;;;12.43;5.63;;;10.70;99.90;;;;;;5038211;28;20032;-75
2022/10/31 07:48:23;;;;;;;12.95;4.80;;;10.70;99.90;;;;;;5037428;28;20056;-75
2022/10/31 07:50:49;;;;;;;10.13;5.03;;;10.70;99.90;;;;;;5043627;28;20385;-74
2022/10/31 07:53:15;;;;;;;16.20;4.97;;;10.80;99.90;;;;;;5034102;28;20029;-75
2022/10/31 07:55:41;;;;;;;15.35;5.15;;;10.90;99.90;;;;;;5033613;28;20040;-76
2022/10/31 07:58:13;;;;;;;13.65;5.15;;;10.80;99.90;;;;;;5036419;28;20421;-75
2022/10/31 08:00:40;;;;;;;21.40;5.97;;;10.80;99.90;;;;;;5015778;28;20076;-74
2022/10/31 08:03:11;;;;;;;11.77;5.18;;;10.80;99.90;;;;;;5037765;28;20112;-75
2022/10/31 08:05:37;;;;;;;9.35;4.35;;;10.80;99.90;;;;;;5025355;28;20035;-75
2022/10/31 08:08:04;;;;;;;17.65;5.28;;;10.90;99.90;;;;;;5021933;28;20444;-75
2022/10/31 08:10:31;;;;;;;11.38;4.93;;;11.00;99.90;;;;;;5013408;28;20091;-74
2022/10/31 08:12:58;;;;;;;9.60;5.35;;;11.00;99.90;;;;;;5019300;28;20030;-75
2022/10/31 08:15:25;;;;;;;14.02;4.60;;;11.00;99.90;;;;;;5032902;28;20021;-75
2022/10/31 08:17:51;;;;;;;12.23;5.82;;;11.00;99.90;;;;;;5014550;28;20096;-75
2022/10/31 08:20:16;;;;;;;16.48;4.80;;;11.10;99.90;;;;;;5033430;28;20122;-75
2022/10/31 08:22:42;;;;;;;9.25;4.78;;;11.20;99.90;;;;;;5035171;28;20087;-75
2022/10/31 08:25:08;;;;;;;11.60;5.13;;;11.20;99.90;;;;;;5034059;28;20067;-75
2022/10/31 08:27:34;;;;;;;12.93;5.00;;;11.30;99.90;;;;;;5019664;28;20048;-75
2022/10/31 08:29:59;;;;;;;9.30;4.90;;;11.40;99.90;;;;;;5032184;28;20037;-74
2022/10/31 08:32:25;;;;;;;13.15;4.55;;;11.40;99.90;;;;;;5027824;28;20048;-75
2022/10/31 08:34:51;;;;;;;17.70;5.10;;;11.50;99.90;;;;;;5035356;28;20026;-75
2022/10/31 08:37:19;;;;;;;9.88;4.55;;;11.60;99.90;;;;;;5029643;28;20083;-75
2022/10/31 08:39:48;;;;;;;12.90;4.78;;;11.60;99.90;;;;;;5034585;28;20026;-75
2022/10/31 08:42:14;;;;;;;12.75;5.32;;;11.70;99.90;;;;;;5031389;28;20766;-75
2022/10/31 08:44:40;;;;;;;12.93;4.90;;;11.80;99.90;;;;;;5035738;28;20033;-74
2022/10/31 08:47:05;;;;;;;15.82;4.80;;;11.90;99.90;;;;;;5036930;28;20033;-74
2022/10/31 08:49:31;;;;;;;13.10;4.80;;;11.90;99.90;;;;;;5036432;28;20100;-75
2022/10/31 08:51:56;;;;;;;10.88;4.60;;;12.00;99.90;;;;;;5040249;28;20121;-74
2022/10/31 08:54:22;;;;;;;10.75;5.10;;;12.10;99.90;;;;;;5027777;28;20034;-74
2022/10/31 08:56:48;;;;;;;12.60;5.45;;;12.10;99.90;;;;;;5029684;28;20029;-75
2022/10/31 08:59:13;;;;;;;9.15;4.78;;;12.10;99.90;;;;;;5031340;28;20025;-75
2022/10/31 09:01:39;;;;;;;11.60;4.72;;;12.20;99.90;;;;;;5016307;28;20021;-74
2022/10/31 09:04:04;;;;;;;9.63;4.32;;;12.30;99.90;;;;;;5016431;28;20025;-74
2022/10/31 09:06:30;;;;;;;13.57;4.88;;;12.30;99.90;;;;;;5020473;28;20078;-74
2022/10/31 09:08:55;;;;;;;13.07;4.32;;;12.30;99.90;;;;;;5015236;28;20030;-74
2022/10/31 09:11:24;;;;;;;10.88;4.93;;;12.40;99.90;;;;;;5035039;28;20591;-75
2022/10/31 09:13:52;;;;;;;13.07;4.88;;;12.50;99.90;;;;;;5040106;28;20063;-74
2022/10/31 09:16:18;;;;;;;11.10;5.45;;;12.60;99.90;;;;;;5048352;22;20410;-77
2022/10/31 09:18:46;;;;;;;15.82;4.57;;;12.70;99.90;;;;;;5036690;28;20106;-77
2022/10/31 09:21:12;;;;;;;12.20;4.57;;;12.80;99.90;;;;;;5067779;28;20375;-77
2022/10/31 09:23:37;;;;;;;13.13;4.93;;;12.80;99.90;;;;;;5060046;28;20053;-77
2022/10/31 09:26:04;;;;;;;11.82;5.43;;;12.90;99.90;;;;;;5054386;28;20539;-77
2022/10/31 09:28:31;;;;;;;11.07;5.13;;;12.90;99.90;;;;;;5054217;28;20029;-77
2022/10/31 09:30:57;;;;;;;12.95;5.10;;;13.00;99.90;;;;;;5036324;28;20040;-76
2022/10/31 09:33:23;;;;;;;12.05;5.20;;;13.10;99.90;;;;;;5040315;28;20030;-77
2022/10/31 09:35:49;;;;;;;17.50;5.75;;;13.20;99.90;;;;;;5034394;28;20464;-76
2022/10/31 09:38:18;;;;;;;13.85;4.80;;;13.30;99.90;;;;;;5047580;28;20025;-76
2022/10/31 09:41:26;;;;;;;11.23;4.70;;;13.40;99.90;;;;;;5036117;28;20097;-76
2022/10/31 09:43:57;;;;;;;9.65;4.72;;;13.50;99.90;;;;;;5034147;28;20017;-76
2022/10/31 09:46:35;;;;;;;12.00;4.85;;;13.60;99.90;;;;;;5014221;28;20113;-77
2022/10/31 09:49:30;;;;;;;16.00;4.85;;;13.70;99.90;;;;;;5014166;28;20036;-77
2022/10/31 09:52:23;;;;;;;13.32;5.07;;;13.80;99.90;;;;;;5014088;28;20034;-76
2022/10/31 09:54:56;;;;;;;14.00;5.70;;;13.90;99.90;;;;;;4996226;28;20528;-76
2022/10/31 09:57:28;;;;;;;13.85;5.60;;;14.00;99.90;;;;;;5014237;28;20017;-77
2022/10/31 09:59:54;;;;;;;10.35;4.30;;;14.00;99.90;;;;;;4996324;28;20034;-75
2022/10/31 10:02:52;;;;;;;11.38;4.35;;;14.10;99.90;;;;;;5013765;28;20030;-77
2022/10/31 10:05:32;;;;;;;16.42;5.20;;;14.30;99.90;;;;;;5014020;28;20046;-77
2022/10/31 10:08:13;;;;;;;7.15;3.85;;;14.30;99.90;;;;;;5015769;28;20025;-77
2022/10/31 10:11:09;;;;;;;8.60;4.15;;;14.40;99.90;;;;;;5032168;28;20037;-77
2022/10/31 10:13:53;;;;;;;14.27;4.07;;;14.60;99.90;;;;;;5032914;28;20024;-76
2022/10/31 10:16:38;;;;;;;9.73;4.05;;;14.70;99.90;;;;;;5041341;28;20410;-77
2022/10/31 10:19:27;;;;;;;9.52;3.85;;;14.80;99.90;;;;;;5033281;28;20478;-76
2022/10/31 10:22:25;;;;;;;10.40;4.32;;;14.80;99.90;;;;;;5033606;28;20028;-76
2022/10/31 10:25:10;;;;;;;7.25;3.78;;;14.90;99.90;;;;;;5046030;28;20150;-76
2022/10/31 10:27:57;;;;;;;11.45;4.20;;;14.90;99.90;;;;;;5053564;28;20382;-76
2022/10/31 10:30:50;;;;;;;14.25;4.90;;;15.00;99.90;;;;;;5052923;28;20025;-77
2022/10/31 10:33:37;;;;;;;8.57;4.25;;;15.10;99.90;;;;;;5053121;28;20032;-77
2022/10/31 10:36:16;;;;;;;9.30;3.83;;;15.10;99.90;;;;;;5035191;28;20112;-77
2022/10/31 10:38:58;;;;;;;7.57;3.78;;;15.20;99.90;;;;;;5053134;28;20035;-77
2022/10/31 10:41:32;;;;;;;8.38;4.53;;;15.30;99.90;;;;;;5052969;28;20029;-76
2022/10/31 10:43:58;;;;;;;8.15;4.65;;;15.30;99.90;;;;;;5052785;28;20469;-76
2022/10/31 10:49:37;;;;;;;14.95;4.55;;;15.40;99.90;;;;;;5032986;28;20028;-76
2022/10/31 10:52:21;;;;;;;10.60;4.55;;;15.50;99.90;;;;;;5032847;28;20025;-77
2022/10/31 10:55:00;;;;;;;13.48;4.50;;;15.70;99.90;;;;;;5032777;28;20378;-76
2022/10/31 10:57:33;;;;;;;11.23;4.57;;;15.80;99.90;;;;;;5032905;28;20045;-76
2022/10/31 11:00:15;;;;;;;11.20;4.07;;;15.90;99.90;;;;;;5032678;28;20026;-77
2022/10/31 11:02:41;;;;;;;14.55;4.93;;;15.90;99.90;;;;;;5014969;28;20385;-77
2022/10/31 11:05:22;;;;;;;12.25;4.63;;;16.00;99.90;;;;;;5019083;28;20029;-76
2022/10/31 11:07:47;;;;;;;11.80;4.22;;;16.10;99.90;;;;;;5035134;28;20035;-77
2022/10/31 11:10:16;;;;;;;13.90;4.68;;;16.10;99.90;;;;;;5054609;28;20099;-78
2022/10/31 11:12:43;;;;;;;9.13;3.42;;;16.20;99.90;;;;;;5055011;28;20028;-77
2022/10/31 11:15:22;;;;;;;10.40;3.80;;;16.20;99.90;;;;;;5035880;28;20049;-77
2022/10/31 11:17:53;;;;;;;12.75;3.30;;;16.30;99.90;;;;;;5043086;28;20076;-77
2022/10/31 11:20:19;;;;;;;10.52;3.78;;;16.20;99.90;;;;;;5033632;28;20512;-78
2022/10/31 11:23:17;;;;;;;9.52;3.75;;;16.20;99.90;;;;;;5015540;28;20025;-78
2022/10/31 11:26:20;;;;;;;8.00;4.10;;;16.30;99.90;;;;;;5016317;28;20080;-78
2022/10/31 11:28:59;;;;;;;9.65;4.57;;;16.40;99.90;;;;;;5042539;28;20021;-76
2022/10/31 11:31:32;;;;;;;10.70;4.05;;;16.40;99.90;;;;;;4999103;28;20290;-76
2022/10/31 11:34:02;;;;;;;11.02;4.53;;;16.40;99.90;;;;;;5035511;28;20095;-76
2022/10/31 11:36:32;;;;;;;6.15;4.03;;;16.50;99.90;;;;;;4994756;28;20116;-75
2022/10/31 11:38:59;;;;;;;11.65;4.43;;;16.50;99.90;;;;;;5003774;28;20087;-77
2022/10/31 11:41:32;;;;;;;8.50;3.65;;;16.60;99.90;;;;;;5036056;28;20029;-78
2022/10/31 11:44:18;;;;;;;12.57;4.38;;;16.60;99.90;;;;;;5051465;28;20022;-77
2022/10/31 11:46:52;;;;;;;8.93;4.35;;;16.60;99.90;;;;;;5033832;28;20544;-76
2022/10/31 11:49:31;;;;;;;8.65;4.03;;;16.60;99.90;;;;;;5033625;28;20516;-77
2022/10/31 11:52:04;;;;;;;13.82;4.13;;;16.70;99.90;;;;;;5017789;28;20107;-78
2022/10/31 11:55:04;;;;;;;9.88;4.30;;;16.80;99.90;;;;;;5035903;28;20109;-77
2022/10/31 11:57:46;;;;;;;10.43;3.92;;;16.80;99.90;;;;;;5029854;28;20044;-77
2022/10/31 12:00:31;;;;;;;11.10;4.15;;;16.90;99.90;;;;;;5037744;28;20018;-77
2022/10/31 12:03:21;;;;;;;8.52;3.75;;;16.90;99.90;;;;;;5050719;28;20101;-77
2022/10/31 12:05:57;;;;;;;5.93;3.22;;;17.00;99.90;;;;;;5034571;28;20117;-76
2022/10/31 12:08:28;;;;;;;8.75;3.58;;;17.10;99.90;;;;;;5036157;28;20021;-76
2022/10/31 12:11:29;;;;;;;9.32;3.30;;;17.10;99.90;;;;;;5039278;28;20082;-78
2022/10/31 12:14:17;;;;;;;9.75;3.97;;;17.10;99.90;;;;;;5014305;28;20028;-76
2022/10/31 12:17:02;;;;;;;10.77;3.90;;;17.10;99.90;;;;;;5025274;28;20493;-78
2022/10/31 12:19:55;;;;;;;9.05;3.25;;;17.10;99.90;;;;;;5035584;28;20091;-77
2022/10/31 12:22:59;;;;;;;9.45;3.78;;;17.10;99.90;;;;;;5031317;28;20030;-77
2022/10/31 12:25:43;;;;;;;10.75;3.78;;;17.10;99.90;;;;;;5036126;28;20025;-77
2022/10/31 12:28:41;;;;;;;10.23;4.32;;;17.20;99.90;;;;;;5047412;28;20112;-76
2022/10/31 12:31:26;;;;;;;7.45;3.67;;;17.10;99.90;;;;;;4982308;28;20042;-77
2022/10/31 12:34:10;;;;;;;9.02;3.85;;;17.20;99.90;;;;;;5022640;28;20029;-76
2022/10/31 12:36:59;;;;;;;8.70;3.95;;;17.10;99.90;;;;;;5038402;28;20470;-78
2022/10/31 12:39:38;;;;;;;9.75;3.45;;;17.20;99.90;;;;;;5034350;28;20044;-77
2022/10/31 12:42:03;;;;;;;8.77;3.85;;;17.10;99.90;;;;;;5040280;28;20028;-78
2022/10/31 12:44:59;;;;;;;10.38;3.60;;;17.10;99.90;;;;;;5051700;28;20021;-78
2022/10/31 12:48:00;;;;;;;11.15;3.17;;;17.10;99.90;;;;;;5019950;28;20493;-78
2022/10/31 12:50:37;;;;;;;10.73;4.10;;;17.10;99.90;;;;;;5026643;28;20018;-78
2022/10/31 12:53:35;;;;;;;10.23;4.22;;;17.00;99.90;;;;;;5043421;28;20032;-77
2022/10/31 12:56:29;;;;;;;12.38;4.25;;;17.00;99.90;;;;;;5033236;28;20079;-77
2022/10/31 12:58:59;;;;;;;10.82;4.90;;;17.00;99.90;;;;;;5039928;28;20469;-76
2022/10/31 13:01:36;;;;;;;10.93;4.25;;;17.00;99.90;;;;;;5029362;28;20392;-78
2022/10/31 13:04:16;;;;;;;9.30;4.55;;;17.00;99.90;;;;;;5049613;28;20108;-78
2022/10/31 13:06:48;;;;;;;9.32;4.15;;;17.00;99.90;;;;;;5027582;28;20025;-78
2022/10/31 13:09:22;;;;;;;10.40;3.95;;;17.10;99.90;;;;;;5037754;28;20071;-77
2022/10/31 13:11:57;;;;;;;12.13;4.65;;;17.10;99.90;;;;;;5016430;28;20091;-77
2022/10/31 13:14:41;;;;;;;10.05;4.18;;;17.10;99.90;;;;;;5029039;28;20125;-77
2022/10/31 13:17:15;;;;;;;14.23;4.82;;;17.10;99.90;;;;;;5022419;28;20029;-77